Time;durP1;ratioP1;P1;durP2;ratioP2;P2;SDS_P1;SDS_P2;PMS_P1;PMS_P2;Temp;Humidity;BMP_temperature;BMP_pressure;BME280_temperature;BME280_humidity;BME280_pressure;Samples;Min_cycle;Max_cycle;Signal;HPM_P1;HPM_P2
2024/04/09 00:01:51;;;;;;;4.63;0.93;;;18.70;63.80;;;;;;5457938;26;21042;-80
2024/04/09 00:04:17;;;;;;;3.33;1.13;;;18.60;64.10;;;;;;5457177;26;20509;-80
2024/04/09 00:06:45;;;;;;;1.47;0.90;;;18.60;62.70;;;;;;5465414;26;20449;-80
2024/04/09 00:09:11;;;;;;;2.10;1.37;;;18.50;63.50;;;;;;5461517;26;20687;-80
2024/04/09 00:11:43;;;;;;;2.70;1.03;;;18.50;64.10;;;;;;5460956;26;20508;-80
2024/04/09 00:14:08;;;;;;;3.00;1.10;;;18.40;65.40;;;;;;5460265;26;20864;-80
2024/04/09 00:16:39;;;;;;;4.07;1.10;;;18.40;65.60;;;;;;5459595;26;20453;-80
2024/04/09 00:19:08;;;;;;;3.53;1.57;;;18.40;65.10;;;;;;5459366;26;20219;-80
2024/04/09 00:21:37;;;;;;;4.20;0.90;;;18.30;65.00;;;;;;5459620;26;20445;-80
2024/04/09 00:24:03;;;;;;;3.60;1.70;;;18.30;67.10;;;;;;5458958;26;20524;-80
2024/04/09 00:26:31;;;;;;;0.87;0.60;;;18.20;65.30;;;;;;5459294;26;20528;-80
2024/04/09 00:28:57;;;;;;;1.20;0.90;;;18.10;65.20;;;;;;5458779;26;20223;-80
2024/04/09 00:31:27;;;;;;;2.10;0.90;;;18.10;66.40;;;;;;5457649;26;20461;-80
2024/04/09 00:33:52;;;;;;;3.37;1.03;;;18.10;67.50;;;;;;5457763;26;20254;-80
2024/04/09 00:36:23;;;;;;;6.50;1.33;;;18.10;67.20;;;;;;5458084;26;20513;-81
2024/04/09 00:38:49;;;;;;;1.40;0.80;;;18.10;67.70;;;;;;5455866;26;20341;-77
2024/04/09 00:41:18;;;;;;;4.20;0.90;;;18.10;67.10;;;;;;5454128;26;20988;-77
2024/04/09 00:43:45;;;;;;;4.20;1.10;;;18.00;66.30;;;;;;5454205;26;20235;-77
2024/04/09 00:46:14;;;;;;;3.67;0.80;;;18.00;67.80;;;;;;5454183;26;20457;-77
2024/04/09 00:48:41;;;;;;;3.13;1.60;;;18.00;68.70;;;;;;5454160;26;20882;-77
2024/04/09 00:51:11;;;;;;;4.97;1.53;;;17.90;64.40;;;;;;5455262;26;20433;-80
2024/04/09 00:53:43;;;;;;;1.80;0.83;;;18.00;65.40;;;;;;5457684;26;20476;-80
2024/04/09 00:56:12;;;;;;;4.20;1.10;;;18.00;67.90;;;;;;5457400;26;20505;-80
2024/04/09 00:58:39;;;;;;;4.20;3.03;;;18.00;69.30;;;;;;5457083;26;20581;-80
2024/04/09 01:01:07;;;;;;;6.63;1.20;;;18.00;69.40;;;;;;5456667;26;20487;-80
2024/04/09 01:03:37;;;;;;;6.03;1.37;;;18.00;69.50;;;;;;5455811;26;20601;-80
2024/04/09 01:06:03;;;;;;;3.13;1.20;;;18.00;69.80;;;;;;5456888;26;20532;-80
2024/04/09 01:08:31;;;;;;;3.60;1.10;;;18.00;71.30;;;;;;5456206;26;20449;-80
2024/04/09 01:11:00;;;;;;;2.50;1.23;;;18.00;70.00;;;;;;5456446;26;20512;-80
2024/04/09 01:13:28;;;;;;;9.10;1.30;;;18.00;69.40;;;;;;5456268;26;21105;-80
2024/04/09 01:15:54;;;;;;;3.90;1.17;;;18.00;69.50;;;;;;5456605;26;20512;-80
2024/04/09 01:18:23;;;;;;;2.30;1.50;;;18.00;70.50;;;;;;5455892;26;20457;-80
2024/04/09 01:20:48;;;;;;;13.27;1.57;;;18.00;70.30;;;;;;5456632;26;20600;-80
2024/04/09 01:23:19;;;;;;;5.27;1.40;;;18.00;69.70;;;;;;5455826;26;20813;-80
2024/04/09 01:25:46;;;;;;;4.20;1.47;;;18.00;68.10;;;;;;5455691;26;20216;-80
2024/04/09 01:28:14;;;;;;;2.43;1.10;;;18.00;67.30;;;;;;5453620;26;20445;-77
2024/04/09 01:30:40;;;;;;;3.60;1.00;;;18.10;69.90;;;;;;5453753;26;20440;-77
2024/04/09 01:33:08;;;;;;;3.17;1.97;;;18.10;71.50;;;;;;5453348;26;20452;-77
2024/04/09 01:35:36;;;;;;;6.63;1.23;;;18.20;72.80;;;;;;5453708;26;20493;-77
2024/04/09 01:38:05;;;;;;;5.43;1.13;;;18.20;72.50;;;;;;5454040;26;20961;-77
2024/04/09 01:40:34;;;;;;;4.00;1.03;;;18.20;71.40;;;;;;5453323;26;20250;-77
2024/04/09 01:42:59;;;;;;;3.67;1.30;;;18.10;72.00;;;;;;5453247;26;20441;-77
2024/04/09 01:45:29;;;;;;;3.60;1.10;;;18.10;70.80;;;;;;5453281;26;21086;-77
2024/04/09 01:47:55;;;;;;;6.37;1.17;;;18.10;69.30;;;;;;5453225;26;20396;-77
2024/04/09 01:50:23;;;;;;;5.10;1.00;;;18.10;68.60;;;;;;5453154;26;20453;-77
2024/04/09 01:52:49;;;;;;;2.23;1.20;;;18.10;70.50;;;;;;5453079;26;20445;-77
2024/04/09 01:55:18;;;;;;;2.13;1.30;;;18.10;69.90;;;;;;5453041;26;20919;-77
2024/04/09 01:57:46;;;;;;;4.10;1.57;;;18.10;70.10;;;;;;5453015;26;20544;-77
2024/04/09 02:00:19;;;;;;;2.37;2.00;;;18.10;69.50;;;;;;5453304;26;20509;-77
2024/04/09 02:02:46;;;;;;;6.90;1.50;;;18.20;69.40;;;;;;5453463;26;20442;-77
2024/04/09 02:05:18;;;;;;;4.23;2.00;;;18.20;71.70;;;;;;5453102;26;20469;-77
2024/04/09 02:07:43;;;;;;;7.97;1.70;;;18.20;70.00;;;;;;5452875;26;20505;-78
2024/04/09 02:10:13;;;;;;;3.00;1.20;;;18.20;71.30;;;;;;5452829;26;20979;-77
2024/04/09 02:12:39;;;;;;;3.13;0.83;;;18.30;71.50;;;;;;5452788;26;20320;-77
2024/04/09 02:15:12;;;;;;;7.43;2.63;;;18.30;70.90;;;;;;5455452;26;20877;-77
2024/04/09 02:17:38;;;;;;;5.40;1.67;;;18.30;69.70;;;;;;5456554;26;20504;-77
2024/04/09 02:20:09;;;;;;;5.60;1.10;;;18.30;70.90;;;;;;5456711;26;20437;-77
2024/04/09 02:22:35;;;;;;;9.23;2.30;;;18.30;71.00;;;;;;5456565;26;20259;-77
2024/04/09 02:25:04;;;;;;;2.73;1.37;;;18.30;69.00;;;;;;5456030;26;20583;-77
2024/04/09 02:27:30;;;;;;;2.83;1.27;;;18.30;70.00;;;;;;5456153;26;20582;-77
2024/04/09 02:29:59;;;;;;;17.67;1.60;;;18.20;70.20;;;;;;5456076;26;20448;-77
2024/04/09 02:32:28;;;;;;;8.23;1.40;;;18.30;71.60;;;;;;5456373;26;20215;-77
2024/04/09 02:34:56;;;;;;;4.20;1.50;;;18.30;72.60;;;;;;5456000;26;20465;-77
2024/04/09 02:37:22;;;;;;;9.93;1.53;;;18.20;73.10;;;;;;5456005;26;20447;-77
2024/04/09 02:39:50;;;;;;;6.73;1.23;;;18.20;71.20;;;;;;5455966;26;20501;-77
2024/04/09 02:42:16;;;;;;;4.77;2.33;;;18.20;71.80;;;;;;5455897;26;20215;-77
2024/04/09 02:44:44;;;;;;;3.20;1.30;;;18.10;71.60;;;;;;5455834;26;20464;-77
2024/04/09 02:47:10;;;;;;;4.83;1.10;;;18.10;70.90;;;;;;5455794;26;20216;-77
2024/04/09 02:49:43;;;;;;;8.27;1.27;;;18.10;71.50;;;;;;5455791;26;20511;-77
2024/04/09 02:52:09;;;;;;;6.40;1.70;;;18.10;70.50;;;;;;5456076;26;20706;-77
2024/04/09 02:54:39;;;;;;;5.43;1.13;;;18.10;72.30;;;;;;5455645;26;20519;-77
2024/04/09 02:57:05;;;;;;;6.77;1.57;;;18.00;70.90;;;;;;5456020;26;20227;-77
2024/04/09 02:59:33;;;;;;;10.03;1.47;;;18.00;71.70;;;;;;5455713;26;20457;-77
2024/04/09 03:01:59;;;;;;;3.20;1.63;;;18.00;70.40;;;;;;5455581;26;20212;-77
2024/04/09 03:04:27;;;;;;;2.70;1.33;;;18.00;70.30;;;;;;5455566;26;20565;-77
2024/04/09 03:06:56;;;;;;;5.97;1.37;;;18.00;69.20;;;;;;5455592;26;20211;-77
2024/04/09 03:09:25;;;;;;;1.73;1.10;;;18.00;68.10;;;;;;5455534;26;20468;-77
2024/04/09 03:11:51;;;;;;;6.93;1.77;;;18.00;68.30;;;;;;5455530;26;20580;-77
2024/04/09 03:14:19;;;;;;;4.47;1.10;;;18.00;67.60;;;;;;5455416;26;20468;-77
2024/04/09 03:16:45;;;;;;;5.60;1.13;;;18.00;67.60;;;;;;5455489;26;20263;-77
2024/04/09 03:19:13;;;;;;;6.57;1.37;;;18.00;66.90;;;;;;5455620;26;20795;-77
2024/04/09 03:21:39;;;;;;;6.87;1.87;;;18.00;66.20;;;;;;5455285;26;20216;-77
2024/04/09 03:24:10;;;;;;;5.03;1.70;;;18.00;66.50;;;;;;5455232;26;20556;-77
2024/04/09 03:26:36;;;;;;;3.70;1.33;;;18.00;66.40;;;;;;5454333;26;20303;-77
2024/04/09 03:29:04;;;;;;;4.60;1.60;;;18.00;66.70;;;;;;5455271;26;20445;-77
2024/04/09 03:31:30;;;;;;;6.30;1.30;;;18.00;67.30;;;;;;5455251;26;20323;-77
2024/04/09 03:34:00;;;;;;;8.63;2.30;;;18.00;68.50;;;;;;5455138;26;20461;-77
2024/04/09 03:36:26;;;;;;;2.33;1.00;;;18.00;68.10;;;;;;5455190;26;20216;-77
2024/04/09 03:38:54;;;;;;;4.70;1.40;;;18.00;69.50;;;;;;5455154;26;20842;-77
2024/04/09 03:41:27;;;;;;;6.70;1.53;;;18.00;71.10;;;;;;5455468;26;20758;-77
2024/04/09 03:43:52;;;;;;;8.70;1.97;;;17.90;72.80;;;;;;5455333;26;20461;-77
2024/04/09 03:46:21;;;;;;;2.67;1.00;;;17.90;72.20;;;;;;5455283;26;20976;-77
2024/04/09 03:48:49;;;;;;;5.30;1.70;;;17.90;72.30;;;;;;5455306;26;20220;-77
2024/04/09 03:51:18;;;;;;;4.10;1.50;;;17.80;71.80;;;;;;5455171;26;20496;-76
2024/04/09 03:53:45;;;;;;;7.10;1.80;;;17.80;72.80;;;;;;5454790;26;20472;-77
2024/04/09 03:56:13;;;;;;;6.00;1.30;;;17.80;73.50;;;;;;5455118;26;20461;-77
2024/04/09 03:58:43;;;;;;;5.20;1.00;;;17.80;73.50;;;;;;5454889;26;21100;-76
2024/04/09 04:01:13;;;;;;;9.60;2.00;;;17.80;73.20;;;;;;5454728;26;20449;-76
2024/04/09 04:03:40;;;;;;;2.20;1.90;;;17.80;74.10;;;;;;5454683;26;20513;-77
2024/04/09 04:06:09;;;;;;;3.80;1.40;;;17.70;73.70;;;;;;5455123;26;20441;-77
2024/04/09 04:08:36;;;;;;;6.90;1.37;;;17.70;74.80;;;;;;5454750;26;20550;-77
2024/04/09 04:11:06;;;;;;;13.03;2.10;;;17.70;74.60;;;;;;5454791;26;21163;-77
2024/04/09 04:13:33;;;;;;;7.13;1.87;;;17.60;74.20;;;;;;5454897;26;20536;-77
2024/04/09 04:16:06;;;;;;;3.60;1.17;;;17.60;74.10;;;;;;5454650;26;20909;-77
2024/04/09 04:18:34;;;;;;;9.57;2.13;;;17.50;74.40;;;;;;5454646;26;20793;-77
2024/04/09 04:21:03;;;;;;;4.87;1.47;;;17.50;74.70;;;;;;5454514;26;20448;-77
2024/04/09 04:23:29;;;;;;;15.57;1.97;;;17.40;74.60;;;;;;5454176;26;20957;-77
2024/04/09 04:26:02;;;;;;;8.13;1.57;;;17.40;74.40;;;;;;5455193;26;20397;-76
2024/04/09 04:28:28;;;;;;;6.47;1.90;;;17.40;74.20;;;;;;5456484;26;20249;-80
2024/04/09 04:30:56;;;;;;;11.10;2.50;;;17.40;75.30;;;;;;5456951;26;20856;-80
2024/04/09 04:33:25;;;;;;;4.07;1.10;;;17.40;74.90;;;;;;5457014;26;21150;-80
2024/04/09 04:35:54;;;;;;;4.77;1.00;;;17.40;74.70;;;;;;5456518;26;20461;-80
2024/04/09 04:38:20;;;;;;;2.63;1.40;;;17.40;74.10;;;;;;5456980;26;20801;-80
2024/04/09 04:40:49;;;;;;;10.40;1.10;;;17.40;75.50;;;;;;5456553;26;20516;-79
2024/04/09 04:43:15;;;;;;;4.70;1.70;;;17.40;74.90;;;;;;5456924;26;20224;-80
2024/04/09 04:45:44;;;;;;;7.73;1.67;;;17.40;75.70;;;;;;5456357;26;20445;-80
2024/04/09 04:48:10;;;;;;;10.57;2.23;;;17.40;76.10;;;;;;5456778;26;20588;-80
2024/04/09 04:50:42;;;;;;;8.20;1.83;;;17.40;75.60;;;;;;5456415;26;20527;-80
2024/04/09 04:53:08;;;;;;;5.20;1.40;;;17.40;76.60;;;;;;5456479;26;20465;-79
2024/04/09 04:55:37;;;;;;;11.03;1.30;;;17.40;78.50;;;;;;5456072;26;20453;-80
2024/04/09 04:58:04;;;;;;;8.40;1.60;;;17.30;77.90;;;;;;5456551;26;20513;-80
2024/04/09 05:00:33;;;;;;;9.77;2.00;;;17.30;79.50;;;;;;5456477;26;20503;-80
2024/04/09 05:02:59;;;;;;;9.70;2.53;;;17.30;80.10;;;;;;5456544;26;20584;-79
2024/04/09 05:05:28;;;;;;;6.07;1.40;;;17.30;80.40;;;;;;5456651;26;20493;-80
2024/04/09 05:07:57;;;;;;;10.53;1.50;;;17.20;81.90;;;;;;5456441;26;20516;-80
2024/04/09 05:10:26;;;;;;;16.17;2.63;;;17.20;83.00;;;;;;5456238;26;20584;-80
2024/04/09 05:12:53;;;;;;;3.13;1.30;;;17.20;82.10;;;;;;5455933;26;20516;-77
2024/04/09 05:15:22;;;;;;;8.60;1.10;;;17.20;82.10;;;;;;5453755;26;20559;-77
2024/04/09 05:17:49;;;;;;;4.47;1.57;;;17.20;82.70;;;;;;5453690;26;20449;-77
2024/04/09 05:20:18;;;;;;;4.83;1.20;;;17.10;82.90;;;;;;5453809;26;20497;-76
2024/04/09 05:22:45;;;;;;;2.40;1.00;;;17.10;83.40;;;;;;5453536;26;20491;-76
2024/04/09 05:25:17;;;;;;;4.57;1.03;;;17.10;83.30;;;;;;5453710;26;20981;-77
2024/04/09 05:27:43;;;;;;;10.47;1.90;;;17.10;84.40;;;;;;5453571;26;20872;-77
2024/04/09 05:30:13;;;;;;;5.00;1.17;;;17.10;84.30;;;;;;5453522;26;20460;-77
2024/04/09 05:32:41;;;;;;;8.97;1.90;;;17.10;83.50;;;;;;5453664;26;20515;-77
2024/04/09 05:35:11;;;;;;;4.13;0.70;;;17.10;85.70;;;;;;5453992;26;20453;-77
2024/04/09 05:37:37;;;;;;;1.23;1.13;;;17.10;85.20;;;;;;5453653;26;20593;-77
2024/04/09 05:40:08;;;;;;;3.40;1.10;;;17.20;86.60;;;;;;5453396;26;20496;-77
2024/04/09 05:42:37;;;;;;;4.87;0.90;;;17.20;87.20;;;;;;5453207;26;20885;-77
2024/04/09 05:45:08;;;;;;;6.63;0.90;;;17.30;88.20;;;;;;5453151;26;20510;-77
2024/04/09 05:47:34;;;;;;;3.50;0.83;;;17.40;88.30;;;;;;5453676;26;20644;-77
2024/04/09 05:50:03;;;;;;;7.03;1.63;;;17.50;89.00;;;;;;5452770;26;20910;-77
2024/04/09 05:52:30;;;;;;;2.27;0.90;;;17.50;89.70;;;;;;5453180;26;20255;-77
2024/04/09 05:54:59;;;;;;;2.40;1.47;;;17.60;88.10;;;;;;5453012;26;20878;-77
2024/04/09 05:57:25;;;;;;;1.37;0.80;;;17.80;88.00;;;;;;5453294;26;20988;-76
2024/04/09 05:59:56;;;;;;;2.67;0.87;;;17.80;87.90;;;;;;5453444;26;20497;-77
2024/04/09 06:02:23;;;;;;;2.30;0.80;;;18.00;88.40;;;;;;5453246;26;20520;-77
2024/04/09 06:04:52;;;;;;;1.00;0.87;;;18.10;89.50;;;;;;5455525;26;20477;-80
2024/04/09 06:07:17;;;;;;;1.67;0.80;;;18.20;87.70;;;;;;5456911;26;20437;-79
2024/04/09 06:09:46;;;;;;;1.80;0.80;;;18.40;87.20;;;;;;5456931;26;20449;-79
2024/04/09 06:12:12;;;;;;;14.83;2.00;;;18.40;88.10;;;;;;5456835;26;20271;-79
2024/04/09 06:14:40;;;;;;;1.73;0.80;;;18.60;87.90;;;;;;5456285;26;20462;-79
2024/04/09 06:17:09;;;;;;;4.60;1.10;;;18.60;88.20;;;;;;5456616;26;20316;-80
2024/04/09 06:19:38;;;;;;;0.97;0.70;;;18.60;87.70;;;;;;5456100;26;20461;-80
2024/04/09 06:22:04;;;;;;;3.43;1.00;;;18.70;87.60;;;;;;5455811;26;20509;-80
2024/04/09 06:24:32;;;;;;;0.60;0.60;;;18.80;87.40;;;;;;5455782;26;20465;-79
2024/04/09 06:26:58;;;;;;;3.67;0.90;;;18.80;88.20;;;;;;5456154;26;20320;-80
2024/04/09 06:29:26;;;;;;;1.23;0.80;;;18.90;87.90;;;;;;5457104;26;20449;-81
2024/04/09 06:31:53;;;;;;;0.90;0.70;;;19.10;87.90;;;;;;5462199;26;20337;-80
2024/04/09 06:34:24;;;;;;;5.30;1.13;;;19.30;87.80;;;;;;5458120;26;20477;-79
2024/04/09 06:36:50;;;;;;;4.53;1.00;;;19.60;86.70;;;;;;5457856;26;20445;-80
2024/04/09 06:39:18;;;;;;;0.97;0.80;;;19.80;86.70;;;;;;5454193;26;20570;-77
2024/04/09 06:41:44;;;;;;;2.33;0.80;;;20.00;86.80;;;;;;5452484;26;20972;-77
2024/04/09 06:44:14;;;;;;;1.17;0.60;;;20.20;86.10;;;;;;5452235;26;20578;-77
2024/04/09 06:46:40;;;;;;;7.83;0.90;;;20.50;85.30;;;;;;5452721;26;20230;-77
2024/04/09 06:49:08;;;;;;;5.90;0.77;;;20.70;84.30;;;;;;5452314;26;20456;-77
2024/04/09 06:51:37;;;;;;;5.03;0.93;;;20.80;82.60;;;;;;5452443;26;20271;-78
2024/04/09 06:54:05;;;;;;;1.23;0.80;;;20.90;84.20;;;;;;5452477;26;20512;-77
2024/04/09 06:56:31;;;;;;;5.40;0.70;;;20.80;83.30;;;;;;5452286;26;21000;-77
2024/04/09 06:58:59;;;;;;;3.83;1.10;;;20.80;85.00;;;;;;5452234;26;20739;-77
2024/04/09 07:01:26;;;;;;;1.83;0.50;;;20.70;84.50;;;;;;5453805;26;20219;-77
2024/04/09 07:03:55;;;;;;;1.37;0.60;;;20.60;84.50;;;;;;5455772;26;20520;-77
2024/04/09 07:06:21;;;;;;;3.33;0.73;;;20.40;85.90;;;;;;5456102;26;20449;-77
2024/04/09 07:08:52;;;;;;;1.33;0.60;;;20.20;86.00;;;;;;5455965;26;20503;-77
2024/04/09 07:11:20;;;;;;;1.90;0.60;;;20.00;86.30;;;;;;5460863;26;20211;-80
2024/04/09 07:13:48;;;;;;;1.43;0.63;;;19.70;87.80;;;;;;5463072;26;20453;-80
2024/04/09 07:16:14;;;;;;;1.13;0.60;;;19.40;87.30;;;;;;5462080;26;20537;-80
2024/04/09 07:18:43;;;;;;;1.80;0.70;;;19.30;89.70;;;;;;5462566;26;20444;-80
2024/04/09 07:21:08;;;;;;;1.63;0.70;;;19.10;90.00;;;;;;5463083;26;20592;-80
2024/04/09 07:23:37;;;;;;;2.10;0.60;;;19.00;90.10;;;;;;5463030;26;20473;-80
2024/04/09 07:26:05;;;;;;;1.30;0.63;;;18.90;90.30;;;;;;5462570;26;20661;-81
2024/04/09 07:28:34;;;;;;;1.13;0.90;;;18.80;90.50;;;;;;5456554;26;20500;-77
2024/04/09 07:31:03;;;;;;;1.20;0.83;;;18.70;90.80;;;;;;5462694;26;20502;-76
2024/04/09 07:33:31;;;;;;;4.33;0.73;;;18.60;91.20;;;;;;5455512;26;20477;-77
2024/04/09 07:35:57;;;;;;;0.83;0.50;;;18.40;91.90;;;;;;5455510;26;20520;-77
2024/04/09 07:38:26;;;;;;;1.10;1.00;;;18.20;91.80;;;;;;5455324;26;20453;-77
2024/04/09 07:40:52;;;;;;;0.57;0.40;;;17.90;92.20;;;;;;5455313;26;20541;-77
2024/04/09 07:43:23;;;;;;;0.50;0.50;;;17.70;92.90;;;;;;5454997;26;20469;-78
2024/04/09 07:45:52;;;;;;;3.23;0.50;;;17.50;93.10;;;;;;5455210;26;20746;-77
2024/04/09 07:48:20;;;;;;;0.70;0.40;;;17.40;93.40;;;;;;5455268;26;20775;-77
2024/04/09 07:50:46;;;;;;;0.50;0.40;;;17.10;93.70;;;;;;5455799;26;20917;-77
2024/04/09 07:53:15;;;;;;;0.50;0.50;;;16.90;94.40;;;;;;5455618;26;20538;-77
2024/04/09 07:55:41;;;;;;;0.30;0.30;;;16.70;94.10;;;;;;5455895;26;20212;-77
2024/04/09 07:58:10;;;;;;;1.03;0.30;;;16.30;93.70;;;;;;5455671;26;20468;-77
2024/04/09 08:00:38;;;;;;;0.40;0.40;;;16.20;93.90;;;;;;5455000;26;20572;-77
2024/04/09 08:03:07;;;;;;;0.30;0.30;;;16.00;93.60;;;;;;5455154;26;20445;-77
2024/04/09 08:05:34;;;;;;;0.80;0.50;;;15.80;94.00;;;;;;5454920;26;20504;-77
2024/04/09 08:08:03;;;;;;;0.30;0.30;;;15.60;94.10;;;;;;5454991;26;20446;-77
2024/04/09 08:10:29;;;;;;;0.40;0.30;;;15.50;94.30;;;;;;5454862;26;20565;-77
2024/04/09 08:13:00;;;;;;;0.37;0.30;;;15.40;93.70;;;;;;5454313;26;20464;-77
2024/04/09 08:15:25;;;;;;;0.30;0.30;;;15.30;93.40;;;;;;5455185;26;20208;-77
2024/04/09 08:17:56;;;;;;;0.40;0.30;;;15.20;93.20;;;;;;5454843;26;20556;-77
2024/04/09 08:20:22;;;;;;;3.47;1.03;;;15.00;92.90;;;;;;5454810;26;20204;-77
2024/04/09 08:22:52;;;;;;;0.30;0.20;;;14.90;92.60;;;;;;5454736;26;20555;-78
2024/04/09 08:25:18;;;;;;;0.67;0.30;;;14.90;91.90;;;;;;5454785;26;20265;-77
2024/04/09 08:27:47;;;;;;;0.30;0.30;;;14.70;91.50;;;;;;5454663;26;20571;-77
2024/04/09 08:30:17;;;;;;;4.10;0.30;;;14.60;91.60;;;;;;5454482;26;20490;-77
2024/04/09 08:32:49;;;;;;;0.30;0.30;;;14.60;91.30;;;;;;5454515;26;20501;-77
2024/04/09 08:35:18;;;;;;;0.30;0.30;;;14.40;91.00;;;;;;5454916;26;21036;-77
2024/04/09 08:37:46;;;;;;;0.40;0.30;;;14.40;91.10;;;;;;5454651;26;20500;-77
2024/04/09 08:40:17;;;;;;;2.53;0.30;;;14.20;91.30;;;;;;5454376;26;20445;-77
2024/04/09 08:42:47;;;;;;;0.30;0.30;;;14.10;91.20;;;;;;5454688;26;20429;-77
2024/04/09 08:45:15;;;;;;;0.30;0.30;;;14.00;91.00;;;;;;5454229;26;20461;-77
2024/04/09 08:47:44;;;;;;;0.30;0.20;;;14.00;91.00;;;;;;5454151;26;20508;-77
2024/04/09 08:50:12;;;;;;;0.30;0.30;;;14.00;90.80;;;;;;5454474;26;20596;-77
2024/04/09 08:52:43;;;;;;;1.67;0.43;;;13.80;90.70;;;;;;5454127;26;20485;-77
2024/04/09 08:55:10;;;;;;;2.43;0.40;;;13.80;91.00;;;;;;5454766;26;20973;-77
2024/04/09 08:57:38;;;;;;;0.30;0.30;;;13.70;90.90;;;;;;5454069;26;20559;-77
2024/04/09 09:00:06;;;;;;;0.70;0.30;;;13.70;90.90;;;;;;5454047;26;20487;-77
2024/04/09 09:02:35;;;;;;;2.00;0.30;;;13.70;90.70;;;;;;5454275;26;20440;-77
2024/04/09 09:05:01;;;;;;;0.30;0.30;;;13.60;90.30;;;;;;5454507;26;20501;-77
2024/04/09 09:07:30;;;;;;;2.20;0.30;;;13.60;90.50;;;;;;5454226;26;20504;-78
2024/04/09 09:10:03;;;;;;;1.03;0.50;;;13.50;90.20;;;;;;5454763;26;20790;-77
2024/04/09 09:12:31;;;;;;;0.30;0.30;;;13.40;90.20;;;;;;5454295;26;20441;-77
2024/04/09 09:15:00;;;;;;;0.30;0.30;;;13.40;90.20;;;;;;5453760;26;20570;-77
2024/04/09 09:17:29;;;;;;;0.73;0.30;;;13.50;90.40;;;;;;5453808;26;20517;-77
2024/04/09 09:19:59;;;;;;;0.30;0.30;;;13.50;89.50;;;;;;5453784;26;20580;-76
2024/04/09 09:22:29;;;;;;;0.40;0.30;;;13.30;89.20;;;;;;5453781;26;20446;-76
2024/04/09 09:25:01;;;;;;;0.40;0.30;;;13.30;90.00;;;;;;5452471;26;20560;-77
2024/04/09 09:27:29;;;;;;;0.30;0.20;;;13.30;90.20;;;;;;5453575;26;20465;-76
2024/04/09 09:29:56;;;;;;;0.60;0.30;;;13.20;90.10;;;;;;5453560;26;20504;-76
2024/04/09 09:32:24;;;;;;;0.53;0.40;;;13.30;90.30;;;;;;5453469;26;20898;-76
2024/04/09 09:34:53;;;;;;;0.40;0.30;;;13.40;90.10;;;;;;5453745;26;20461;-77
2024/04/09 09:37:23;;;;;;;0.30;0.30;;;13.40;90.10;;;;;;5454125;26;20441;-76
2024/04/09 09:39:51;;;;;;;0.30;0.30;;;13.50;90.00;;;;;;5453470;26;20497;-76
2024/04/09 09:42:23;;;;;;;0.30;0.30;;;13.50;89.90;;;;;;5453448;26;20505;-77
2024/04/09 09:44:52;;;;;;;0.60;0.30;;;13.40;89.20;;;;;;5453613;26;20492;-76
2024/04/09 09:47:22;;;;;;;3.20;0.30;;;13.40;89.80;;;;;;5453575;26;20457;-76
2024/04/09 09:49:50;;;;;;;0.50;0.30;;;13.30;88.90;;;;;;5453662;26;20924;-76
2024/04/09 09:52:19;;;;;;;0.87;0.30;;;13.30;90.00;;;;;;5453529;26;20500;-76
2024/04/09 09:54:45;;;;;;;0.30;0.30;;;13.30;90.00;;;;;;5453961;26;21008;-77
2024/04/09 09:57:18;;;;;;;0.87;0.30;;;13.40;90.30;;;;;;5454490;26;20520;-76
2024/04/09 09:59:51;;;;;;;0.40;0.30;;;13.40;90.20;;;;;;5453416;26;21044;-76
2024/04/09 10:02:22;;;;;;;0.40;0.30;;;13.40;90.00;;;;;;5453119;26;20554;-76
2024/04/09 10:04:48;;;;;;;0.40;0.30;;;13.40;90.40;;;;;;5452983;26;20456;-76
2024/04/09 10:07:21;;;;;;;0.30;0.20;;;13.40;90.40;;;;;;5453354;26;20537;-76
2024/04/09 10:09:52;;;;;;;0.30;0.30;;;13.40;90.10;;;;;;5453209;26;20449;-76
2024/04/09 10:12:24;;;;;;;0.30;0.30;;;13.30;90.30;;;;;;5452857;26;20909;-76
2024/04/09 10:15:02;;;;;;;0.30;0.30;;;13.30;90.70;;;;;;5452751;26;20543;-76
2024/04/09 10:17:47;;;;;;;0.30;0.30;;;13.30;90.50;;;;;;5453540;26;20424;-76
2024/04/09 10:20:17;;;;;;;0.30;0.30;;;13.30;90.80;;;;;;5452759;26;20445;-76
2024/04/09 10:22:46;;;;;;;0.40;0.30;;;13.30;90.40;;;;;;5452888;26;20497;-77
2024/04/09 10:25:15;;;;;;;0.67;0.30;;;13.30;90.10;;;;;;5452700;26;20464;-77
2024/04/09 10:27:44;;;;;;;0.30;0.20;;;13.30;90.40;;;;;;5452666;26;20501;-77
2024/04/09 10:30:17;;;;;;;0.30;0.30;;;13.40;90.50;;;;;;5452592;26;20497;-77
2024/04/09 10:32:56;;;;;;;0.33;0.27;;;13.50;90.60;;;;;;5452432;26;20489;-77
2024/04/09 10:35:22;;;;;;;0.40;0.30;;;13.50;89.70;;;;;;5454391;26;21063;-77
2024/04/09 10:37:51;;;;;;;0.40;0.30;;;13.50;89.20;;;;;;5456199;26;20563;-77
2024/04/09 10:40:17;;;;;;;0.30;0.30;;;13.60;90.00;;;;;;5456025;26;20342;-77
2024/04/09 10:42:46;;;;;;;0.30;0.30;;;13.50;88.20;;;;;;5456094;26;20456;-77
2024/04/09 10:45:11;;;;;;;0.30;0.20;;;13.60;87.60;;;;;;5455951;26;20465;-77
2024/04/09 10:47:43;;;;;;;0.83;0.60;;;13.60;88.10;;;;;;5456178;26;20570;-77
2024/04/09 10:50:09;;;;;;;0.30;0.30;;;13.50;87.50;;;;;;5455911;26;20219;-77
2024/04/09 10:52:38;;;;;;;0.30;0.30;;;13.60;87.90;;;;;;5456150;26;20570;-77
2024/04/09 10:55:08;;;;;;;0.30;0.20;;;13.50;86.40;;;;;;5455776;26;20250;-77
2024/04/09 10:57:36;;;;;;;0.30;0.30;;;13.50;87.40;;;;;;5456016;26;20780;-76
2024/04/09 11:00:08;;;;;;;0.57;0.27;;;13.40;87.20;;;;;;5455906;26;20504;-76
2024/04/09 11:02:37;;;;;;;0.30;0.30;;;13.40;87.40;;;;;;5455824;26;20505;-76
2024/04/09 11:05:06;;;;;;;0.30;0.20;;;13.30;88.30;;;;;;5455603;26;20465;-76
2024/04/09 11:07:35;;;;;;;0.50;0.30;;;13.20;88.30;;;;;;5455913;26;20992;-77
2024/04/09 11:10:01;;;;;;;0.40;0.30;;;13.10;87.40;;;;;;5455728;26;20580;-76
2024/04/09 11:12:30;;;;;;;0.30;0.30;;;13.10;88.90;;;;;;5455544;26;20441;-76
2024/04/09 11:14:57;;;;;;;0.30;0.20;;;13.00;88.90;;;;;;5455711;26;20583;-76
2024/04/09 11:17:25;;;;;;;0.63;0.40;;;12.90;88.50;;;;;;5455789;26;20492;-76
2024/04/09 11:19:51;;;;;;;1.70;0.30;;;12.90;90.00;;;;;;5455486;26;20453;-76
2024/04/09 11:22:22;;;;;;;0.40;0.30;;;12.80;89.30;;;;;;5455648;26;20517;-76
2024/04/09 11:24:48;;;;;;;0.30;0.30;;;12.50;88.60;;;;;;5455479;26;20228;-77
2024/04/09 11:27:16;;;;;;;0.40;0.30;;;12.40;89.80;;;;;;5455446;26;20461;-76
2024/04/09 11:29:47;;;;;;;0.40;0.40;;;12.40;89.30;;;;;;5455455;26;20281;-76
2024/04/09 11:32:15;;;;;;;0.40;0.30;;;12.40;90.20;;;;;;5455683;26;20428;-76
2024/04/09 11:34:41;;;;;;;0.30;0.27;;;12.30;90.00;;;;;;5455262;26;20536;-76
2024/04/09 11:37:10;;;;;;;0.30;0.30;;;12.30;90.10;;;;;;5459918;26;20805;-76
2024/04/09 11:39:39;;;;;;;0.40;0.30;;;12.30;90.30;;;;;;5457835;26;20215;-76
2024/04/09 11:42:08;;;;;;;0.30;0.30;;;12.20;89.60;;;;;;5455781;26;20513;-77
2024/04/09 11:44:33;;;;;;;0.40;0.30;;;12.10;89.90;;;;;;5455156;26;20513;-76
2024/04/09 11:47:02;;;;;;;0.40;0.30;;;12.10;90.10;;;;;;5454321;26;20557;-76
2024/04/09 11:49:28;;;;;;;2.70;0.33;;;12.10;89.70;;;;;;5455549;26;20271;-76
2024/04/09 11:51:56;;;;;;;0.30;0.20;;;12.10;89.30;;;;;;5455002;26;20555;-76
2024/04/09 11:54:22;;;;;;;0.30;0.30;;;12.10;90.10;;;;;;5454904;26;20239;-76
2024/04/09 11:56:54;;;;;;;0.30;0.20;;;12.10;90.00;;;;;;5455279;26;21102;-76
2024/04/09 11:59:20;;;;;;;0.30;0.30;;;12.20;90.00;;;;;;5455510;26;20264;-76
2024/04/09 12:01:48;;;;;;;0.80;0.30;;;12.10;89.70;;;;;;5456001;26;20578;-77
2024/04/09 12:04:15;;;;;;;0.30;0.30;;;12.10;90.50;;;;;;5455114;26;20661;-76
2024/04/09 12:06:44;;;;;;;0.30;0.30;;;12.10;90.10;;;;;;5454831;26;20465;-76
2024/04/09 12:09:11;;;;;;;0.30;0.30;;;12.10;90.00;;;;;;5454866;26;21025;-76
2024/04/09 12:11:40;;;;;;;9.80;1.27;;;12.10;90.50;;;;;;5455040;26;20453;-77
2024/04/09 12:14:09;;;;;;;0.50;0.50;;;12.00;90.80;;;;;;5454646;26;20505;-77
2024/04/09 12:16:42;;;;;;;0.30;0.20;;;11.90;90.60;;;;;;5455044;26;20653;-77
2024/04/09 12:19:08;;;;;;;0.30;0.30;;;11.90;90.80;;;;;;5454675;26;20452;-77
2024/04/09 12:21:37;;;;;;;0.30;0.30;;;11.90;90.90;;;;;;5454773;26;20468;-76
2024/04/09 12:24:03;;;;;;;0.30;0.30;;;11.90;91.30;;;;;;5454764;26;20307;-76
2024/04/09 12:26:32;;;;;;;0.40;0.30;;;11.90;91.30;;;;;;5454525;26;20440;-77
2024/04/09 12:28:59;;;;;;;0.30;0.30;;;11.90;91.80;;;;;;5454531;26;20448;-76
2024/04/09 12:31:30;;;;;;;0.30;0.30;;;11.80;92.00;;;;;;5454456;26;20504;-76
2024/04/09 12:33:56;;;;;;;0.30;0.30;;;11.90;92.30;;;;;;5454383;26;20524;-77
2024/04/09 12:36:24;;;;;;;0.30;0.30;;;11.90;91.90;;;;;;5454428;26;21059;-76
2024/04/09 12:38:50;;;;;;;0.30;0.20;;;12.00;92.00;;;;;;5454521;26;20204;-76
2024/04/09 12:41:18;;;;;;;0.30;0.20;;;12.00;91.80;;;;;;5454265;26;20563;-77
2024/04/09 12:43:44;;;;;;;0.40;0.30;;;11.90;91.50;;;;;;5454632;26;20341;-76
2024/04/09 12:46:13;;;;;;;0.30;0.20;;;11.80;91.70;;;;;;5454512;26;20984;-76
2024/04/09 12:48:42;;;;;;;0.30;0.30;;;11.80;92.10;;;;;;5454621;26;20456;-76
2024/04/09 12:51:11;;;;;;;0.73;0.37;;;11.80;92.40;;;;;;5454502;26;20434;-76